FDX642 EKYT-EKOD
Flight info
| Callsign | FDX642 |
|---|---|
| Flight time | 0h 33m |
| Altitude | 15000 |
| Route | AAL DCT RADIS DCT ABINO DCT VP017 |
| Aircraft | AT76/M-SDFGIRY/S |
Departure
| Time | 2026-05-06 18:59 |
|---|---|
| Airport | Aalborg Airport (EKYT) |
Arrival
| Time | 2026-05-06 19:33 |
|---|---|
| Airport | Odense Hans Christian Andersen Airport (EKOD) |
| Time | Latitude | Longitude | Altitude | Speed | Heading |
|---|---|---|---|---|---|
| 2026-05-06 18:37 | 57.08563 | 9.86769 | 15 ft | 0 kts | 142° |
| 2026-05-06 18:51 | 57.08561 | 9.86773 | 15 ft | 2 kts | 141° |
| 2026-05-06 18:51 | 57.08546 | 9.86814 | 16 ft | 5 kts | 88° |
| 2026-05-06 18:51 | 57.08555 | 9.86867 | 16 ft | 6 kts | 58° |
| 2026-05-06 18:51 | 57.08587 | 9.86945 | 16 ft | 9 kts | 51° |
| 2026-05-06 18:52 | 57.08626 | 9.86930 | 17 ft | 6 kts | 319° |
| 2026-05-06 18:52 | 57.08654 | 9.86885 | 15 ft | 5 kts | 319° |
| 2026-05-06 18:52 | 57.08680 | 9.86844 | 15 ft | 5 kts | 319° |
| 2026-05-06 18:52 | 57.08714 | 9.86790 | 15 ft | 10 kts | 319° |
| 2026-05-06 18:53 | 57.08782 | 9.86689 | 15 ft | 15 kts | 322° |
| 2026-05-06 18:53 | 57.08878 | 9.86551 | 15 ft | 20 kts | 321° |
| 2026-05-06 18:53 | 57.08993 | 9.86383 | 15 ft | 23 kts | 322° |
| 2026-05-06 18:53 | 57.09125 | 9.86195 | 15 ft | 25 kts | 322° |
| 2026-05-06 18:54 | 57.09260 | 9.86004 | 14 ft | 15 kts | 323° |
| 2026-05-06 18:54 | 57.09338 | 9.85959 | 14 ft | 12 kts | 40° |
| 2026-05-06 18:54 | 57.09356 | 9.86127 | 15 ft | 18 kts | 83° |
| 2026-05-06 18:54 | 57.09365 | 9.86255 | 15 ft | 16 kts | 83° |
| 2026-05-06 18:55 | 57.09382 | 9.86503 | 16 ft | 23 kts | 82° |
| 2026-05-06 18:55 | 57.09403 | 9.86829 | 17 ft | 27 kts | 84° |
| 2026-05-06 18:55 | 57.09425 | 9.87192 | 13 ft | 31 kts | 83° |
| 2026-05-06 18:55 | 57.09446 | 9.87508 | 14 ft | 24 kts | 84° |
| 2026-05-06 18:56 | 57.09472 | 9.87716 | 15 ft | 11 kts | 45° |
| 2026-05-06 18:56 | 57.09539 | 9.87755 | 15 ft | 4 kts | 355° |
| 2026-05-06 18:56 | 57.09540 | 9.87755 | 15 ft | 0 kts | 355° |
| 2026-05-06 18:57 | 57.09542 | 9.87755 | 15 ft | 3 kts | 355° |
| 2026-05-06 18:57 | 57.09595 | 9.87727 | 15 ft | 7 kts | 330° |
| 2026-05-06 18:57 | 57.09635 | 9.87680 | 15 ft | 6 kts | 318° |
| 2026-05-06 18:57 | 57.09646 | 9.87619 | 14 ft | 0 kts | 264° |
| 2026-05-06 18:58 | 57.09645 | 9.87616 | 14 ft | 6 kts | 264° |
| 2026-05-06 18:58 | 57.09613 | 9.87094 | 14 ft | 74 kts | 263° |
| 2026-05-06 18:58 | 57.09525 | 9.85804 | 20 ft | 125 kts | 264° |
| 2026-05-06 18:59 | 57.09415 | 9.84162 | 401 ft | 136 kts | 264° |
| 2026-05-06 18:59 | 57.09268 | 9.82348 | 862 ft | 151 kts | 264° |
| 2026-05-06 18:59 | 57.09091 | 9.80387 | 1358 ft | 160 kts | 263° |
| 2026-05-06 18:59 | 57.08904 | 9.78359 | 1972 ft | 161 kts | 263° |
| 2026-05-06 19:00 | 57.08723 | 9.76305 | 2531 ft | 168 kts | 263° |
| 2026-05-06 19:00 | 57.08561 | 9.74086 | 2978 ft | 177 kts | 264° |
| 2026-05-06 19:00 | 57.08415 | 9.71821 | 3539 ft | 179 kts | 264° |
| 2026-05-06 19:00 | 57.08282 | 9.69536 | 4064 ft | 181 kts | 264° |
| 2026-05-06 19:01 | 57.08149 | 9.67230 | 4653 ft | 182 kts | 264° |
| 2026-05-06 19:01 | 57.08019 | 9.64903 | 5229 ft | 183 kts | 264° |
| 2026-05-06 19:01 | 57.07886 | 9.62571 | 5831 ft | 184 kts | 264° |
| 2026-05-06 19:01 | 57.07750 | 9.60222 | 6409 ft | 185 kts | 264° |
| 2026-05-06 19:02 | 57.07609 | 9.57864 | 6960 ft | 186 kts | 264° |
| 2026-05-06 19:02 | 57.07465 | 9.55495 | 7520 ft | 187 kts | 264° |
| 2026-05-06 19:02 | 57.07324 | 9.53150 | 8076 ft | 187 kts | 264° |
| 2026-05-06 19:02 | 57.07178 | 9.50767 | 8655 ft | 188 kts | 264° |
| 2026-05-06 19:03 | 57.07026 | 9.48376 | 9201 ft | 189 kts | 261° |
| 2026-05-06 19:03 | 57.06389 | 9.46316 | 9732 ft | 192 kts | 217° |
| 2026-05-06 19:03 | 57.05104 | 9.45657 | 10213 ft | 198 kts | 181° |
| 2026-05-06 19:03 | 57.03815 | 9.46513 | 10661 ft | 202 kts | 143° |
| 2026-05-06 19:04 | 57.02656 | 9.47988 | 11045 ft | 204 kts | 153° |
| 2026-05-06 19:04 | 57.01400 | 9.49203 | 11526 ft | 204 kts | 155° |
| 2026-05-06 19:04 | 57.00139 | 9.50424 | 12005 ft | 206 kts | 153° |
| 2026-05-06 19:04 | 56.98887 | 9.51725 | 12454 ft | 208 kts | 152° |
| 2026-05-06 19:05 | 56.97654 | 9.53061 | 12880 ft | 210 kts | 152° |
| 2026-05-06 19:05 | 56.96393 | 9.54429 | 13302 ft | 211 kts | 152° |
| 2026-05-06 19:05 | 56.95122 | 9.55804 | 13732 ft | 213 kts | 152° |
| 2026-05-06 19:05 | 56.93841 | 9.57189 | 14123 ft | 214 kts | 153° |
| 2026-05-06 19:06 | 56.92551 | 9.58574 | 14484 ft | 215 kts | 153° |
| 2026-05-06 19:06 | 56.91256 | 9.59969 | 14821 ft | 217 kts | 154° |
| 2026-05-06 19:06 | 56.89910 | 9.61407 | 14890 ft | 231 kts | 153° |
| 2026-05-06 19:06 | 56.88488 | 9.62932 | 14923 ft | 243 kts | 153° |
| 2026-05-06 19:07 | 56.87003 | 9.64529 | 14927 ft | 253 kts | 153° |
| 2026-05-06 19:07 | 56.85486 | 9.66159 | 14935 ft | 260 kts | 153° |
| 2026-05-06 19:07 | 56.83906 | 9.67855 | 14937 ft | 266 kts | 153° |
| 2026-05-06 19:07 | 56.82292 | 9.69582 | 14935 ft | 271 kts | 153° |
| 2026-05-06 19:08 | 56.80657 | 9.71332 | 14935 ft | 274 kts | 153° |
| 2026-05-06 19:08 | 56.79006 | 9.73099 | 14940 ft | 276 kts | 153° |
| 2026-05-06 19:08 | 56.77346 | 9.74870 | 14937 ft | 278 kts | 153° |
| 2026-05-06 19:08 | 56.75673 | 9.76657 | 14933 ft | 279 kts | 153° |
| 2026-05-06 19:09 | 56.73994 | 9.78447 | 14934 ft | 280 kts | 153° |
| 2026-05-06 19:09 | 56.72309 | 9.80237 | 14923 ft | 281 kts | 153° |
| 2026-05-06 19:09 | 56.70623 | 9.82026 | 14929 ft | 280 kts | 153° |
| 2026-05-06 19:09 | 56.68939 | 9.83816 | 14931 ft | 280 kts | 153° |
| 2026-05-06 19:10 | 56.67276 | 9.85581 | 14937 ft | 281 kts | 153° |
| 2026-05-06 19:10 | 56.65588 | 9.87368 | 14934 ft | 281 kts | 153° |
| 2026-05-06 19:10 | 56.63901 | 9.89160 | 14929 ft | 281 kts | 153° |
| 2026-05-06 19:10 | 56.62214 | 9.90945 | 14925 ft | 280 kts | 153° |
| 2026-05-06 19:11 | 56.60529 | 9.92725 | 14932 ft | 280 kts | 153° |
| 2026-05-06 19:11 | 56.58845 | 9.94500 | 14930 ft | 280 kts | 153° |
| 2026-05-06 19:11 | 56.57163 | 9.96271 | 14930 ft | 280 kts | 153° |
| 2026-05-06 19:11 | 56.55480 | 9.98040 | 14931 ft | 280 kts | 153° |
| 2026-05-06 19:12 | 56.53722 | 9.99345 | 14940 ft | 270 kts | 173° |
| 2026-05-06 19:12 | 56.51860 | 9.99702 | 14936 ft | 269 kts | 182° |
| 2026-05-06 19:12 | 56.49989 | 9.99669 | 14939 ft | 269 kts | 185° |
| 2026-05-06 19:12 | 56.48117 | 9.99550 | 14930 ft | 270 kts | 185° |
| 2026-05-06 19:13 | 56.46238 | 9.99453 | 14938 ft | 270 kts | 184° |
| 2026-05-06 19:13 | 56.44381 | 9.99429 | 14931 ft | 270 kts | 183° |
| 2026-05-06 19:13 | 56.42504 | 9.99432 | 14928 ft | 270 kts | 183° |
| 2026-05-06 19:13 | 56.40623 | 9.99433 | 14934 ft | 270 kts | 183° |
| 2026-05-06 19:14 | 56.38745 | 9.99430 | 14930 ft | 270 kts | 183° |
| 2026-05-06 19:14 | 56.36866 | 9.99427 | 14927 ft | 270 kts | 183° |
| 2026-05-06 19:14 | 56.34986 | 9.99428 | 14928 ft | 270 kts | 183° |
| 2026-05-06 19:14 | 56.33106 | 9.99423 | 14930 ft | 270 kts | 183° |
| 2026-05-06 19:15 | 56.31226 | 9.99424 | 14929 ft | 271 kts | 183° |
| 2026-05-06 19:15 | 56.29341 | 9.99421 | 14934 ft | 271 kts | 183° |
| 2026-05-06 19:15 | 56.27458 | 9.99421 | 14933 ft | 271 kts | 183° |
| 2026-05-06 19:15 | 56.25572 | 9.99418 | 14923 ft | 271 kts | 183° |
| 2026-05-06 19:16 | 56.23684 | 9.99417 | 14928 ft | 271 kts | 183° |
| 2026-05-06 19:16 | 56.21799 | 9.99414 | 14925 ft | 271 kts | 183° |
| 2026-05-06 19:16 | 56.19916 | 9.99411 | 14924 ft | 271 kts | 183° |
| 2026-05-06 19:16 | 56.18055 | 9.99411 | 14940 ft | 271 kts | 183° |
| 2026-05-06 19:17 | 56.16172 | 9.99410 | 14934 ft | 271 kts | 183° |
| 2026-05-06 19:17 | 56.14290 | 9.99409 | 14942 ft | 271 kts | 183° |
| 2026-05-06 19:17 | 56.12405 | 9.99405 | 14950 ft | 271 kts | 183° |
| 2026-05-06 19:17 | 56.10522 | 9.99402 | 14951 ft | 271 kts | 183° |
| 2026-05-06 19:18 | 56.08599 | 9.99399 | 14597 ft | 284 kts | 183° |
| 2026-05-06 19:18 | 56.06650 | 9.99399 | 14738 ft | 275 kts | 183° |
| 2026-05-06 19:18 | 56.04762 | 9.99399 | 14909 ft | 268 kts | 183° |
| 2026-05-06 19:18 | 56.02913 | 9.99400 | 15084 ft | 263 kts | 183° |
| 2026-05-06 19:19 | 56.01082 | 9.99396 | 15047 ft | 268 kts | 183° |
| 2026-05-06 19:19 | 55.99154 | 9.99386 | 14614 ft | 285 kts | 183° |
| 2026-05-06 19:19 | 55.97146 | 9.99382 | 14333 ft | 289 kts | 183° |
| 2026-05-06 19:19 | 55.95161 | 9.99886 | 14014 ft | 291 kts | 167° |
| 2026-05-06 19:20 | 55.93266 | 10.00978 | 14214 ft | 271 kts | 164° |
| 2026-05-06 19:20 | 55.91589 | 10.02002 | 14899 ft | 248 kts | 165° |
| 2026-05-06 19:20 | 55.89920 | 10.02915 | 14916 ft | 256 kts | 168° |
| 2026-05-06 19:20 | 55.88171 | 10.03743 | 14781 ft | 270 kts | 169° |
| 2026-05-06 19:21 | 55.86296 | 10.04590 | 14416 ft | 283 kts | 169° |
| 2026-05-06 19:21 | 55.84380 | 10.05457 | 14035 ft | 285 kts | 168° |
| 2026-05-06 19:21 | 55.82459 | 10.06383 | 13576 ft | 287 kts | 167° |
| 2026-05-06 19:21 | 55.80532 | 10.07316 | 13087 ft | 287 kts | 167° |
| 2026-05-06 19:22 | 55.78610 | 10.08249 | 12605 ft | 286 kts | 167° |
| 2026-05-06 19:22 | 55.76698 | 10.09177 | 12129 ft | 284 kts | 167° |
| 2026-05-06 19:22 | 55.74799 | 10.10090 | 11658 ft | 280 kts | 167° |
| 2026-05-06 19:22 | 55.72934 | 10.10998 | 11196 ft | 276 kts | 167° |
| 2026-05-06 19:23 | 55.71095 | 10.11879 | 10715 ft | 272 kts | 167° |
| 2026-05-06 19:23 | 55.69278 | 10.12757 | 10256 ft | 269 kts | 166° |
| 2026-05-06 19:23 | 55.67509 | 10.13610 | 9874 ft | 265 kts | 166° |
| 2026-05-06 19:23 | 55.65804 | 10.14432 | 9822 ft | 248 kts | 167° |
| 2026-05-06 19:24 | 55.64155 | 10.15230 | 9410 ft | 253 kts | 166° |
| 2026-05-06 19:24 | 55.62436 | 10.16045 | 9012 ft | 258 kts | 165° |
| 2026-05-06 19:24 | 55.60701 | 10.16875 | 8598 ft | 257 kts | 165° |
| 2026-05-06 19:24 | 55.58975 | 10.17509 | 8109 ft | 251 kts | 180° |
| 2026-05-06 19:25 | 55.57304 | 10.16722 | 7638 ft | 250 kts | 205° |
| 2026-05-06 19:25 | 55.55804 | 10.15156 | 7190 ft | 252 kts | 215° |
| 2026-05-06 19:25 | 55.54455 | 10.13147 | 6736 ft | 254 kts | 223° |
| 2026-05-06 19:25 | 55.53189 | 10.10950 | 6287 ft | 257 kts | 224° |
| 2026-05-06 19:26 | 55.51942 | 10.08746 | 5849 ft | 256 kts | 224° |
| 2026-05-06 19:26 | 55.50719 | 10.06645 | 5427 ft | 238 kts | 222° |
| 2026-05-06 19:26 | 55.49509 | 10.04650 | 5048 ft | 237 kts | 222° |
| 2026-05-06 19:26 | 55.48301 | 10.02672 | 4701 ft | 237 kts | 223° |
| 2026-05-06 19:27 | 55.47004 | 10.00952 | 4330 ft | 233 kts | 200° |
| 2026-05-06 19:27 | 55.45425 | 10.00656 | 3961 ft | 229 kts | 172° |
| 2026-05-06 19:27 | 55.43873 | 10.01210 | 3604 ft | 227 kts | 161° |
| 2026-05-06 19:27 | 55.42402 | 10.02220 | 3237 ft | 227 kts | 152° |
| 2026-05-06 19:28 | 55.41018 | 10.03543 | 2867 ft | 224 kts | 146° |
| 2026-05-06 19:28 | 55.39993 | 10.05492 | 2484 ft | 217 kts | 110° |
| 2026-05-06 19:28 | 55.39875 | 10.08045 | 2192 ft | 206 kts | 76° |
| 2026-05-06 19:28 | 55.40251 | 10.10426 | 2059 ft | 198 kts | 68° |
| 2026-05-06 19:29 | 55.40785 | 10.12558 | 2029 ft | 189 kts | 60° |
| 2026-05-06 19:29 | 55.41405 | 10.14539 | 1992 ft | 181 kts | 57° |
| 2026-05-06 19:29 | 55.42044 | 10.16420 | 1911 ft | 180 kts | 57° |
| 2026-05-06 19:29 | 55.42668 | 10.18245 | 1680 ft | 168 kts | 56° |
| 2026-05-06 19:30 | 55.43234 | 10.19904 | 1504 ft | 149 kts | 56° |
| 2026-05-06 19:30 | 55.43750 | 10.21392 | 1342 ft | 131 kts | 56° |
| 2026-05-06 19:30 | 55.44179 | 10.22657 | 1168 ft | 113 kts | 55° |
| 2026-05-06 19:30 | 55.44566 | 10.23822 | 1013 ft | 109 kts | 56° |
| 2026-05-06 19:31 | 55.44949 | 10.24954 | 851 ft | 106 kts | 56° |
| 2026-05-06 19:31 | 55.45313 | 10.26064 | 725 ft | 103 kts | 56° |
| 2026-05-06 19:31 | 55.46031 | 10.28191 | 472 ft | 100 kts | 52° |
| 2026-05-06 19:32 | 55.46401 | 10.29249 | 330 ft | 102 kts | 58° |
| 2026-05-06 19:32 | 55.46756 | 10.30340 | 212 ft | 102 kts | 57° |
| 2026-05-06 19:32 | 55.47113 | 10.31418 | 69 ft | 100 kts | 56° |
| 2026-05-06 19:32 | 55.47430 | 10.32364 | 58 ft | 52 kts | 63° |
| 2026-05-06 19:33 | 55.47480 | 10.32533 | 59 ft | 5 kts | 77° |
| 2026-05-06 19:33 | 55.47458 | 10.32592 | 60 ft | 8 kts | 136° |
| 2026-05-06 19:33 | 55.47431 | 10.32638 | 61 ft | 0 kts | 134° |
| 2026-05-06 19:33 | 55.47417 | 10.32663 | 63 ft | 6 kts | 134° |
| 2026-05-06 19:34 | 55.47374 | 10.32741 | 59 ft | 11 kts | 135° |
| 2026-05-06 19:34 | 55.47325 | 10.32812 | 57 ft | 5 kts | 176° |
| 2026-05-06 19:34 | 55.47300 | 10.32764 | 58 ft | 6 kts | 236° |
| 2026-05-06 19:34 | 55.47285 | 10.32716 | 60 ft | 1 kts | 269° |
| 2026-05-06 19:35 | 55.47292 | 10.32693 | 61 ft | 3 kts | 298° |
| 2026-05-06 19:35 | 55.47292 | 10.32692 | 61 ft | 0 kts | 298° |